sensor_id;sensor_type;location;lat;lon;timestamp;pressure;altitude;pressure_sealevel;temperature;humidity
50682;BME280;36779;52.168;20.878;2023-07-28T00:00:18;99651.06;;;15.07;54.21
50682;BME280;36779;52.168;20.878;2023-07-28T00:03:13;99653.65;;;15.12;54.55
50682;BME280;36779;52.168;20.878;2023-07-28T00:05:45;99654.23;;;15.14;54.53
50682;BME280;36779;52.168;20.878;2023-07-28T00:08:17;99653.97;;;15.16;54.42
50682;BME280;36779;52.168;20.878;2023-07-28T00:10:50;99655.08;;;15.18;54.60
50682;BME280;36779;52.168;20.878;2023-07-28T00:13:22;99657.09;;;15.20;54.51
50682;BME280;36779;52.168;20.878;2023-07-28T00:15:54;99654.09;;;15.23;54.67
50682;BME280;36779;52.168;20.878;2023-07-28T00:18:28;99648.63;;;15.23;54.64
50682;BME280;36779;52.168;20.878;2023-07-28T00:21:00;99643.26;;;15.23;54.68
50682;BME280;36779;52.168;20.878;2023-07-28T00:23:33;99637.61;;;15.22;54.60
50682;BME280;36779;52.168;20.878;2023-07-28T00:26:05;99634.47;;;15.18;54.72
50682;BME280;36779;52.168;20.878;2023-07-28T00:28:38;99631.54;;;15.16;54.53
50682;BME280;36779;52.168;20.878;2023-07-28T00:31:10;99631.14;;;15.14;54.43
50682;BME280;36779;52.168;20.878;2023-07-28T00:33:45;99630.36;;;15.13;54.68
50682;BME280;36779;52.168;20.878;2023-07-28T00:36:17;99633.33;;;15.12;54.56
50682;BME280;36779;52.168;20.878;2023-07-28T00:38:51;99632.79;;;15.14;54.62
50682;BME280;36779;52.168;20.878;2023-07-28T00:41:25;99630.67;;;15.16;54.99
50682;BME280;36779;52.168;20.878;2023-07-28T00:44:00;99631.66;;;15.18;54.94
50682;BME280;36779;52.168;20.878;2023-07-28T00:46:32;99629.96;;;15.20;54.76
50682;BME280;36779;52.168;20.878;2023-07-28T00:49:05;99624.84;;;15.23;54.79
50682;BME280;36779;52.168;20.878;2023-07-28T00:51:38;99623.01;;;15.25;55.07
50682;BME280;36779;52.168;20.878;2023-07-28T00:54:10;99621.73;;;15.28;54.78
50682;BME280;36779;52.168;20.878;2023-07-28T00:56:46;99617.91;;;15.31;55.09
50682;BME280;36779;52.168;20.878;2023-07-28T00:59:20;99613.98;;;15.33;55.09
50682;BME280;36779;52.168;20.878;2023-07-28T01:01:53;99614.81;;;15.34;54.90
50682;BME280;36779;52.168;20.878;2023-07-28T01:04:26;99615.89;;;15.34;55.07
50682;BME280;36779;52.168;20.878;2023-07-28T01:07:03;99612.63;;;15.33;55.14
50682;BME280;36779;52.168;20.878;2023-07-28T01:09:46;99606.39;;;15.30;54.85
50682;BME280;36779;52.168;20.878;2023-07-28T01:12:23;99597.93;;;15.26;55.04
50682;BME280;36779;52.168;20.878;2023-07-28T01:14:57;99592.61;;;15.23;54.87
50682;BME280;36779;52.168;20.878;2023-07-28T01:17:36;99597.70;;;15.21;55.05
50682;BME280;36779;52.168;20.878;2023-07-28T01:20:09;99589.95;;;15.21;55.04
50682;BME280;36779;52.168;20.878;2023-07-28T01:23:04;99585.77;;;15.23;55.00
50682;BME280;36779;52.168;20.878;2023-07-28T01:25:47;99583.03;;;15.25;55.30
50682;BME280;36779;52.168;20.878;2023-07-28T01:28:20;99586.49;;;15.29;55.39
50682;BME280;36779;52.168;20.878;2023-07-28T01:30:53;99585.44;;;15.33;55.15
50682;BME280;36779;52.168;20.878;2023-07-28T01:33:25;99581.42;;;15.36;55.42
50682;BME280;36779;52.168;20.878;2023-07-28T01:36:00;99577.98;;;15.37;55.16
50682;BME280;36779;52.168;20.878;2023-07-28T01:38:33;99575.12;;;15.39;55.49
50682;BME280;36779;52.168;20.878;2023-07-28T01:41:05;99573.96;;;15.41;55.35
50682;BME280;36779;52.168;20.878;2023-07-28T01:43:37;99578.09;;;15.42;55.48
50682;BME280;36779;52.168;20.878;2023-07-28T01:46:09;99577.14;;;15.41;55.64
50682;BME280;36779;52.168;20.878;2023-07-28T01:48:41;99573.59;;;15.39;55.35
50682;BME280;36779;52.168;20.878;2023-07-28T01:51:14;99571.33;;;15.38;55.44
50682;BME280;36779;52.168;20.878;2023-07-28T01:53:46;99568.69;;;15.36;55.38
50682;BME280;36779;52.168;20.878;2023-07-28T01:56:18;99569.99;;;15.32;55.44
50682;BME280;36779;52.168;20.878;2023-07-28T01:58:50;99569.31;;;15.30;55.58
50682;BME280;36779;52.168;20.878;2023-07-28T02:01:25;99564.55;;;15.29;55.36
50682;BME280;36779;52.168;20.878;2023-07-28T02:03:58;99560.25;;;15.31;55.74
50682;BME280;36779;52.168;20.878;2023-07-28T02:06:31;99557.89;;;15.31;55.54
50682;BME280;36779;52.168;20.878;2023-07-28T02:09:04;99559.54;;;15.34;55.75
50682;BME280;36779;52.168;20.878;2023-07-28T02:11:36;99559.15;;;15.35;55.80
50682;BME280;36779;52.168;20.878;2023-07-28T02:14:09;99561.05;;;15.37;55.90
50682;BME280;36779;52.168;20.878;2023-07-28T02:16:41;99560.34;;;15.39;55.77
50682;BME280;36779;52.168;20.878;2023-07-28T02:19:16;99564.42;;;15.38;55.67
50682;BME280;36779;52.168;20.878;2023-07-28T02:21:49;99562.69;;;15.38;55.84
50682;BME280;36779;52.168;20.878;2023-07-28T02:24:21;99564.77;;;15.36;56.04
50682;BME280;36779;52.168;20.878;2023-07-28T02:26:54;99563.70;;;15.36;55.71
50682;BME280;36779;52.168;20.878;2023-07-28T02:29:28;99561.19;;;15.32;55.91
50682;BME280;36779;52.168;20.878;2023-07-28T02:32:01;99562.08;;;15.28;55.78
50682;BME280;36779;52.168;20.878;2023-07-28T02:34:33;99558.77;;;15.27;55.83
50682;BME280;36779;52.168;20.878;2023-07-28T02:37:05;99565.13;;;15.28;56.01
50682;BME280;36779;52.168;20.878;2023-07-28T02:39:37;99567.52;;;15.30;56.12
50682;BME280;36779;52.168;20.878;2023-07-28T02:42:12;99565.20;;;15.31;56.03
50682;BME280;36779;52.168;20.878;2023-07-28T02:44:45;99559.37;;;15.34;56.11
50682;BME280;36779;52.168;20.878;2023-07-28T02:47:17;99554.77;;;15.33;55.96
50682;BME280;36779;52.168;20.878;2023-07-28T02:49:49;99544.93;;;15.30;56.19
50682;BME280;36779;52.168;20.878;2023-07-28T02:52:22;99546.95;;;15.28;56.26
50682;BME280;36779;52.168;20.878;2023-07-28T02:54:55;99555.64;;;15.29;56.22
50682;BME280;36779;52.168;20.878;2023-07-28T02:57:28;99558.80;;;15.31;56.22
50682;BME280;36779;52.168;20.878;2023-07-28T03:00:00;99554.07;;;15.36;56.47
50682;BME280;36779;52.168;20.878;2023-07-28T03:02:37;99549.73;;;15.37;56.68
50682;BME280;36779;52.168;20.878;2023-07-28T03:05:09;99549.14;;;15.39;56.60
50682;BME280;36779;52.168;20.878;2023-07-28T03:07:49;99544.71;;;15.38;56.59
50682;BME280;36779;52.168;20.878;2023-07-28T03:10:22;99539.64;;;15.37;56.65
50682;BME280;36779;52.168;20.878;2023-07-28T03:12:57;99540.44;;;15.33;56.64
50682;BME280;36779;52.168;20.878;2023-07-28T03:15:30;99538.48;;;15.30;56.49
50682;BME280;36779;52.168;20.878;2023-07-28T03:18:02;99538.73;;;15.28;56.50
50682;BME280;36779;52.168;20.878;2023-07-28T03:20:34;99538.45;;;15.29;56.84
50682;BME280;36779;52.168;20.878;2023-07-28T03:23:09;99535.39;;;15.29;56.48
50682;BME280;36779;52.168;20.878;2023-07-28T03:25:42;99534.32;;;15.28;56.96
50682;BME280;36779;52.168;20.878;2023-07-28T03:28:14;99529.73;;;15.29;56.77
50682;BME280;36779;52.168;20.878;2023-07-28T03:30:47;99524.89;;;15.30;56.68
50682;BME280;36779;52.168;20.878;2023-07-28T03:33:20;99522.23;;;15.31;56.95
50682;BME280;36779;52.168;20.878;2023-07-28T03:35:52;99522.48;;;15.34;57.00
50682;BME280;36779;52.168;20.878;2023-07-28T03:38:25;99523.42;;;15.35;57.16
50682;BME280;36779;52.168;20.878;2023-07-28T03:41:00;99527.34;;;15.36;56.88
50682;BME280;36779;52.168;20.878;2023-07-28T03:43:34;99528.22;;;15.36;57.05
50682;BME280;36779;52.168;20.878;2023-07-28T03:46:07;99520.68;;;15.37;57.16
50682;BME280;36779;52.168;20.878;2023-07-28T03:48:41;99521.75;;;15.39;57.11
50682;BME280;36779;52.168;20.878;2023-07-28T03:51:14;99524.47;;;15.42;57.22
50682;BME280;36779;52.168;20.878;2023-07-28T03:53:46;99521.72;;;15.45;57.42
50682;BME280;36779;52.168;20.878;2023-07-28T03:56:19;99517.13;;;15.47;57.38
50682;BME280;36779;52.168;20.878;2023-07-28T03:58:52;99515.26;;;15.48;57.52
50682;BME280;36779;52.168;20.878;2023-07-28T04:01:25;99512.80;;;15.51;57.44
50682;BME280;36779;52.168;20.878;2023-07-28T04:03:59;99513.66;;;15.53;57.37
50682;BME280;36779;52.168;20.878;2023-07-28T04:06:42;99514.27;;;15.55;57.53
50682;BME280;36779;52.168;20.878;2023-07-28T04:09:16;99515.88;;;15.55;57.62
50682;BME280;36779;52.168;20.878;2023-07-28T04:11:48;99512.95;;;15.54;57.53
50682;BME280;36779;52.168;20.878;2023-07-28T04:14:20;99510.59;;;15.54;57.73
50682;BME280;36779;52.168;20.878;2023-07-28T04:16:52;99511.73;;;15.57;57.57
50682;BME280;36779;52.168;20.878;2023-07-28T04:19:25;99507.88;;;15.60;57.67
50682;BME280;36779;52.168;20.878;2023-07-28T04:21:59;99507.80;;;15.64;57.89
50682;BME280;36779;52.168;20.878;2023-07-28T04:24:33;99506.73;;;15.68;57.80
50682;BME280;36779;52.168;20.878;2023-07-28T04:27:07;99507.49;;;15.73;57.88
50682;BME280;36779;52.168;20.878;2023-07-28T04:29:40;99505.48;;;15.77;57.85
50682;BME280;36779;52.168;20.878;2023-07-28T04:32:13;99502.69;;;15.80;57.84
50682;BME280;36779;52.168;20.878;2023-07-28T04:34:47;99501.63;;;15.84;57.74
50682;BME280;36779;52.168;20.878;2023-07-28T04:37:25;99503.17;;;15.87;57.95
50682;BME280;36779;52.168;20.878;2023-07-28T04:40:01;99496.95;;;15.90;58.03
50682;BME280;36779;52.168;20.878;2023-07-28T04:42:37;99492.80;;;15.92;57.81
50682;BME280;36779;52.168;20.878;2023-07-28T04:45:10;99490.10;;;15.93;57.94
50682;BME280;36779;52.168;20.878;2023-07-28T04:47:43;99486.01;;;15.94;57.70
50682;BME280;36779;52.168;20.878;2023-07-28T04:50:17;99482.89;;;15.95;57.94
50682;BME280;36779;52.168;20.878;2023-07-28T04:53:08;99474.15;;;15.97;57.92
50682;BME280;36779;52.168;20.878;2023-07-28T04:55:59;99473.31;;;15.99;57.95
50682;BME280;36779;52.168;20.878;2023-07-28T04:58:31;99473.30;;;16.02;58.11
50682;BME280;36779;52.168;20.878;2023-07-28T05:01:07;99469.54;;;16.06;58.06
50682;BME280;36779;52.168;20.878;2023-07-28T05:03:40;99470.73;;;16.11;58.17
50682;BME280;36779;52.168;20.878;2023-07-28T05:06:25;99473.98;;;16.17;58.15
50682;BME280;36779;52.168;20.878;2023-07-28T05:09:00;99473.52;;;16.22;58.00
50682;BME280;36779;52.168;20.878;2023-07-28T05:11:39;99473.55;;;16.29;58.16
50682;BME280;36779;52.168;20.878;2023-07-28T05:14:11;99472.95;;;16.34;58.16
50682;BME280;36779;52.168;20.878;2023-07-28T05:16:43;99471.29;;;16.39;58.18
50682;BME280;36779;52.168;20.878;2023-07-28T05:19:15;99469.36;;;16.45;58.16
50682;BME280;36779;52.168;20.878;2023-07-28T05:22:07;99466.48;;;16.49;58.17
50682;BME280;36779;52.168;20.878;2023-07-28T05:24:52;99464.12;;;16.53;58.12
50682;BME280;36779;52.168;20.878;2023-07-28T05:27:27;99465.33;;;16.56;58.06
50682;BME280;36779;52.168;20.878;2023-07-28T05:29:59;99465.93;;;16.58;58.06
50682;BME280;36779;52.168;20.878;2023-07-28T05:32:33;99459.82;;;16.59;58.17
50682;BME280;36779;52.168;20.878;2023-07-28T05:35:25;99465.77;;;16.61;58.14
50682;BME280;36779;52.168;20.878;2023-07-28T05:37:59;99464.25;;;16.63;58.06
50682;BME280;36779;52.168;20.878;2023-07-28T05:40:32;99468.04;;;16.65;57.85
50682;BME280;36779;52.168;20.878;2023-07-28T05:43:04;99466.96;;;16.69;58.05
50682;BME280;36779;52.168;20.878;2023-07-28T05:45:36;99465.05;;;16.75;58.01
50682;BME280;36779;52.168;20.878;2023-07-28T05:48:09;99463.48;;;16.80;58.10
50682;BME280;36779;52.168;20.878;2023-07-28T05:50:41;99463.91;;;16.85;58.14
50682;BME280;36779;52.168;20.878;2023-07-28T05:53:13;99464.88;;;16.90;58.22
50682;BME280;36779;52.168;20.878;2023-07-28T05:55:45;99462.49;;;16.96;58.11
50682;BME280;36779;52.168;20.878;2023-07-28T05:58:18;99467.13;;;17.00;58.05
50682;BME280;36779;52.168;20.878;2023-07-28T06:00:51;99467.38;;;17.03;57.99
50682;BME280;36779;52.168;20.878;2023-07-28T06:03:44;99468.05;;;17.03;57.92
50682;BME280;36779;52.168;20.878;2023-07-28T06:06:24;99469.02;;;17.04;58.07
50682;BME280;36779;52.168;20.878;2023-07-28T06:09:01;99468.26;;;17.05;57.84
50682;BME280;36779;52.168;20.878;2023-07-28T06:11:33;99467.73;;;17.08;57.97
50682;BME280;36779;52.168;20.878;2023-07-28T06:14:12;99465.92;;;17.10;57.96
50682;BME280;36779;52.168;20.878;2023-07-28T06:16:44;99472.27;;;17.14;57.86
50682;BME280;36779;52.168;20.878;2023-07-28T06:19:17;99470.21;;;17.17;57.68
50682;BME280;36779;52.168;20.878;2023-07-28T06:21:56;99467.61;;;17.19;57.83
50682;BME280;36779;52.168;20.878;2023-07-28T06:24:29;99467.38;;;17.23;57.96
50682;BME280;36779;52.168;20.878;2023-07-28T06:27:03;99471.53;;;17.27;57.71
50682;BME280;36779;52.168;20.878;2023-07-28T06:29:41;99469.77;;;17.31;57.75
50682;BME280;36779;52.168;20.878;2023-07-28T06:32:13;99467.64;;;17.34;57.73
50682;BME280;36779;52.168;20.878;2023-07-28T06:34:46;99466.64;;;17.37;57.81
50682;BME280;36779;52.168;20.878;2023-07-28T06:37:18;99465.04;;;17.38;57.84
50682;BME280;36779;52.168;20.878;2023-07-28T06:39:51;99464.10;;;17.37;57.78
50682;BME280;36779;52.168;20.878;2023-07-28T06:42:23;99457.60;;;17.37;57.84
50682;BME280;36779;52.168;20.878;2023-07-28T06:44:59;99458.95;;;17.38;57.69
50682;BME280;36779;52.168;20.878;2023-07-28T06:47:32;99458.98;;;17.39;57.74
50682;BME280;36779;52.168;20.878;2023-07-28T06:50:06;99456.28;;;17.39;57.69
50682;BME280;36779;52.168;20.878;2023-07-28T06:52:38;99453.09;;;17.38;57.70
50682;BME280;36779;52.168;20.878;2023-07-28T06:55:11;99454.64;;;17.35;57.55
50682;BME280;36779;52.168;20.878;2023-07-28T06:57:43;99457.55;;;17.32;57.57
50682;BME280;36779;52.168;20.878;2023-07-28T07:00:17;99469.23;;;17.27;57.53
50682;BME280;36779;52.168;20.878;2023-07-28T07:02:49;99475.61;;;17.20;57.52
50682;BME280;36779;52.168;20.878;2023-07-28T07:05:22;99474.27;;;17.08;57.54
50682;BME280;36779;52.168;20.878;2023-07-28T07:07:57;99478.00;;;16.98;57.55
50682;BME280;36779;52.168;20.878;2023-07-28T07:10:30;99482.52;;;16.88;57.67
50682;BME280;36779;52.168;20.878;2023-07-28T07:13:02;99488.98;;;16.79;57.81
50682;BME280;36779;52.168;20.878;2023-07-28T07:15:36;99491.82;;;16.72;57.80
50682;BME280;36779;52.168;20.878;2023-07-28T07:18:08;99489.74;;;16.64;57.90
50682;BME280;36779;52.168;20.878;2023-07-28T07:20:41;99488.04;;;16.57;58.08
50682;BME280;36779;52.168;20.878;2023-07-28T07:23:13;99479.85;;;16.55;58.27
50682;BME280;36779;52.168;20.878;2023-07-28T07:25:45;99480.93;;;16.56;58.34
50682;BME280;36779;52.168;20.878;2023-07-28T07:28:20;99481.63;;;16.53;58.35
50682;BME280;36779;52.168;20.878;2023-07-28T07:30:53;99480.42;;;16.49;58.52
50682;BME280;36779;52.168;20.878;2023-07-28T07:33:26;99472.14;;;16.41;58.40
50682;BME280;36779;52.168;20.878;2023-07-28T07:35:58;99472.75;;;16.34;58.52
50682;BME280;36779;52.168;20.878;2023-07-28T07:38:31;99479.52;;;16.27;58.79
50682;BME280;36779;52.168;20.878;2023-07-28T07:41:03;99476.04;;;16.27;58.85
50682;BME280;36779;52.168;20.878;2023-07-28T07:43:35;99474.56;;;16.30;59.07
50682;BME280;36779;52.168;20.878;2023-07-28T07:46:07;99467.27;;;16.30;59.02
50682;BME280;36779;52.168;20.878;2023-07-28T07:48:40;99465.98;;;16.33;59.15
50682;BME280;36779;52.168;20.878;2023-07-28T07:51:12;99466.32;;;16.35;59.32
50682;BME280;36779;52.168;20.878;2023-07-28T07:53:44;99468.09;;;16.36;59.55
50682;BME280;36779;52.168;20.878;2023-07-28T07:56:17;99466.35;;;16.36;59.46
50682;BME280;36779;52.168;20.878;2023-07-28T07:58:50;99471.11;;;16.37;59.49
50682;BME280;36779;52.168;20.878;2023-07-28T08:01:22;99472.35;;;16.40;59.54
50682;BME280;36779;52.168;20.878;2023-07-28T08:03:54;99477.73;;;16.44;59.77
50682;BME280;36779;52.168;20.878;2023-07-28T08:06:27;99476.13;;;16.44;59.88
50682;BME280;36779;52.168;20.878;2023-07-28T08:09:00;99476.36;;;16.41;59.77
50682;BME280;36779;52.168;20.878;2023-07-28T08:11:33;99475.98;;;16.38;59.95
50682;BME280;36779;52.168;20.878;2023-07-28T08:14:05;99474.92;;;16.36;60.19
50682;BME280;36779;52.168;20.878;2023-07-28T08:16:38;99469.24;;;16.37;60.01
50682;BME280;36779;52.168;20.878;2023-07-28T08:19:10;99465.54;;;16.40;60.18
50682;BME280;36779;52.168;20.878;2023-07-28T08:21:42;99461.94;;;16.43;60.20
50682;BME280;36779;52.168;20.878;2023-07-28T08:24:14;99459.42;;;16.46;60.35
50682;BME280;36779;52.168;20.878;2023-07-28T08:26:47;99457.05;;;16.51;60.29
50682;BME280;36779;52.168;20.878;2023-07-28T08:29:19;99451.70;;;16.57;60.62
50682;BME280;36779;52.168;20.878;2023-07-28T08:31:52;99453.83;;;16.66;60.76
50682;BME280;36779;52.168;20.878;2023-07-28T08:34:24;99452.50;;;16.76;60.79
50682;BME280;36779;52.168;20.878;2023-07-28T08:36:59;99456.66;;;16.85;60.73
50682;BME280;36779;52.168;20.878;2023-07-28T08:39:32;99459.55;;;16.92;60.70
50682;BME280;36779;52.168;20.878;2023-07-28T08:42:05;99459.98;;;17.02;60.88
50682;BME280;36779;52.168;20.878;2023-07-28T08:44:37;99455.86;;;17.09;60.93
50682;BME280;36779;52.168;20.878;2023-07-28T08:47:10;99458.23;;;17.11;60.79
50682;BME280;36779;52.168;20.878;2023-07-28T08:49:42;99457.66;;;17.11;60.85
50682;BME280;36779;52.168;20.878;2023-07-28T08:52:18;99452.25;;;17.13;61.03
50682;BME280;36779;52.168;20.878;2023-07-28T08:54:50;99445.45;;;17.16;61.09
50682;BME280;36779;52.168;20.878;2023-07-28T08:57:23;99440.73;;;17.21;61.06
50682;BME280;36779;52.168;20.878;2023-07-28T08:59:55;99435.21;;;17.26;61.29
50682;BME280;36779;52.168;20.878;2023-07-28T09:02:28;99434.89;;;17.31;61.23
50682;BME280;36779;52.168;20.878;2023-07-28T09:05:04;99432.91;;;17.35;61.16
50682;BME280;36779;52.168;20.878;2023-07-28T09:07:37;99427.82;;;17.39;61.33
50682;BME280;36779;52.168;20.878;2023-07-28T09:10:10;99431.85;;;17.44;61.35
50682;BME280;36779;52.168;20.878;2023-07-28T09:12:50;99434.48;;;17.48;61.39
50682;BME280;36779;52.168;20.878;2023-07-28T09:15:22;99438.45;;;17.51;61.48
50682;BME280;36779;52.168;20.878;2023-07-28T09:17:58;99433.46;;;17.54;61.35
50682;BME280;36779;52.168;20.878;2023-07-28T09:20:37;99430.79;;;17.59;61.45
50682;BME280;36779;52.168;20.878;2023-07-28T09:23:09;99437.06;;;17.69;61.53
50682;BME280;36779;52.168;20.878;2023-07-28T09:25:42;99439.68;;;17.78;61.55
50682;BME280;36779;52.168;20.878;2023-07-28T09:28:15;99430.94;;;17.83;61.58
50682;BME280;36779;52.168;20.878;2023-07-28T09:30:48;99434.32;;;17.83;61.48
50682;BME280;36779;52.168;20.878;2023-07-28T09:33:35;99437.30;;;17.82;61.43
50682;BME280;36779;52.168;20.878;2023-07-28T09:36:10;99425.50;;;17.76;61.58
50682;BME280;36779;52.168;20.878;2023-07-28T09:38:42;99427.80;;;17.75;61.55
50682;BME280;36779;52.168;20.878;2023-07-28T09:41:15;99423.98;;;17.76;61.61
50682;BME280;36779;52.168;20.878;2023-07-28T09:43:48;99416.91;;;17.79;61.79
50682;BME280;36779;52.168;20.878;2023-07-28T09:46:23;99411.86;;;17.82;61.83
50682;BME280;36779;52.168;20.878;2023-07-28T09:48:58;99419.04;;;17.86;61.72
50682;BME280;36779;52.168;20.878;2023-07-28T09:51:32;99414.41;;;17.89;61.71
50682;BME280;36779;52.168;20.878;2023-07-28T09:54:10;99417.61;;;17.92;61.78
50682;BME280;36779;52.168;20.878;2023-07-28T09:56:45;99410.95;;;17.98;61.80
50682;BME280;36779;52.168;20.878;2023-07-28T09:59:19;99415.92;;;18.03;61.78
50682;BME280;36779;52.168;20.878;2023-07-28T10:01:53;99414.27;;;18.07;61.92
50682;BME280;36779;52.168;20.878;2023-07-28T10:04:25;99410.73;;;18.12;61.87
50682;BME280;36779;52.168;20.878;2023-07-28T10:06:58;99413.52;;;18.19;61.87
50682;BME280;36779;52.168;20.878;2023-07-28T10:09:31;99409.71;;;18.22;61.81
50682;BME280;36779;52.168;20.878;2023-07-28T10:12:05;99416.26;;;18.28;61.89
50682;BME280;36779;52.168;20.878;2023-07-28T10:14:38;99410.93;;;18.33;61.86
50682;BME280;36779;52.168;20.878;2023-07-28T10:17:16;99411.71;;;18.37;61.90
50682;BME280;36779;52.168;20.878;2023-07-28T10:19:48;99406.55;;;18.45;62.04
50682;BME280;36779;52.168;20.878;2023-07-28T10:22:21;99402.40;;;18.53;61.97
50682;BME280;36779;52.168;20.878;2023-07-28T10:24:54;99403.39;;;18.65;62.03
50682;BME280;36779;52.168;20.878;2023-07-28T10:27:36;99402.51;;;18.78;62.14
50682;BME280;36779;52.168;20.878;2023-07-28T10:30:13;99403.86;;;18.89;62.14
50682;BME280;36779;52.168;20.878;2023-07-28T10:32:48;99403.29;;;18.98;62.00
50682;BME280;36779;52.168;20.878;2023-07-28T10:35:27;99399.92;;;19.04;61.99
50682;BME280;36779;52.168;20.878;2023-07-28T10:38:34;99393.08;;;19.08;61.87
50682;BME280;36779;52.168;20.878;2023-07-28T10:41:09;99392.19;;;19.12;61.99
50682;BME280;36779;52.168;20.878;2023-07-28T10:43:42;99393.67;;;19.19;61.96
50682;BME280;36779;52.168;20.878;2023-07-28T10:46:17;99392.41;;;19.30;61.98
50682;BME280;36779;52.168;20.878;2023-07-28T10:48:51;99386.81;;;19.34;61.92
50682;BME280;36779;52.168;20.878;2023-07-28T10:51:29;99381.63;;;19.39;61.97
50682;BME280;36779;52.168;20.878;2023-07-28T10:54:04;99379.71;;;19.46;62.01
50682;BME280;36779;52.168;20.878;2023-07-28T10:56:36;99380.85;;;19.56;61.89
50682;BME280;36779;52.168;20.878;2023-07-28T10:59:09;99379.73;;;19.63;61.85
50682;BME280;36779;52.168;20.878;2023-07-28T11:01:42;99381.84;;;19.68;61.81
50682;BME280;36779;52.168;20.878;2023-07-28T11:04:16;99382.60;;;19.72;61.78
50682;BME280;36779;52.168;20.878;2023-07-28T11:06:50;99388.23;;;19.75;61.87
50682;BME280;36779;52.168;20.878;2023-07-28T11:09:23;99388.77;;;19.79;61.73
50682;BME280;36779;52.168;20.878;2023-07-28T11:11:56;99389.13;;;19.78;61.66
50682;BME280;36779;52.168;20.878;2023-07-28T11:14:29;99390.76;;;19.79;61.75
50682;BME280;36779;52.168;20.878;2023-07-28T11:17:02;99389.17;;;19.81;61.78
50682;BME280;36779;52.168;20.878;2023-07-28T11:19:37;99389.38;;;20.06;62.34
50682;BME280;36779;52.168;20.878;2023-07-28T11:22:09;99374.02;;;20.63;62.85
50682;BME280;36779;52.168;20.878;2023-07-28T11:24:41;99370.64;;;21.19;62.76
50682;BME280;36779;52.168;20.878;2023-07-28T11:27:14;99369.92;;;21.59;62.35
50682;BME280;36779;52.168;20.878;2023-07-28T11:29:47;99369.72;;;21.89;62.27
50682;BME280;36779;52.168;20.878;2023-07-28T11:32:19;99371.16;;;22.25;62.20
50682;BME280;36779;52.168;20.878;2023-07-28T11:34:52;99369.87;;;22.60;61.81
50682;BME280;36779;52.168;20.878;2023-07-28T11:37:24;99365.92;;;22.84;61.61
50682;BME280;36779;52.168;20.878;2023-07-28T11:39:58;99363.70;;;22.99;61.12
50682;BME280;36779;52.168;20.878;2023-07-28T11:42:32;99359.11;;;23.11;60.97
50682;BME280;36779;52.168;20.878;2023-07-28T11:45:06;99362.94;;;23.22;60.68
50682;BME280;36779;52.168;20.878;2023-07-28T11:47:39;99365.92;;;23.32;60.58
50682;BME280;36779;52.168;20.878;2023-07-28T11:50:11;99363.82;;;23.47;60.61
50682;BME280;36779;52.168;20.878;2023-07-28T11:52:54;99366.77;;;23.53;60.16
50682;BME280;36779;52.168;20.878;2023-07-28T11:55:29;99367.63;;;23.46;59.82
50682;BME280;36779;52.168;20.878;2023-07-28T11:58:03;99361.58;;;23.41;59.70
50682;BME280;36779;52.168;20.878;2023-07-28T12:00:36;99360.92;;;23.37;59.44
50682;BME280;36779;52.168;20.878;2023-07-28T12:03:12;99359.02;;;23.37;59.66
50682;BME280;36779;52.168;20.878;2023-07-28T12:06:01;99360.29;;;23.58;59.78
50682;BME280;36779;52.168;20.878;2023-07-28T12:08:38;99363.82;;;23.68;59.38
50682;BME280;36779;52.168;20.878;2023-07-28T12:11:15;99361.61;;;23.70;59.10
50682;BME280;36779;52.168;20.878;2023-07-28T12:13:52;99365.20;;;23.77;59.15
50682;BME280;36779;52.168;20.878;2023-07-28T12:16:37;99368.30;;;23.81;58.69
50682;BME280;36779;52.168;20.878;2023-07-28T12:19:13;99366.59;;;23.59;58.27
50682;BME280;36779;52.168;20.878;2023-07-28T12:21:45;99367.30;;;23.37;58.23
50682;BME280;36779;52.168;20.878;2023-07-28T12:24:18;99368.41;;;23.21;58.31
50682;BME280;36779;52.168;20.878;2023-07-28T12:26:51;99370.40;;;23.08;58.27
50682;BME280;36779;52.168;20.878;2023-07-28T12:29:23;99366.73;;;22.94;58.16
50682;BME280;36779;52.168;20.878;2023-07-28T12:31:58;99370.14;;;22.80;58.10
50682;BME280;36779;52.168;20.878;2023-07-28T12:34:34;99370.05;;;22.68;58.16
50682;BME280;36779;52.168;20.878;2023-07-28T12:37:21;99370.38;;;22.54;58.11
50682;BME280;36779;52.168;20.878;2023-07-28T12:39:56;99368.41;;;22.37;58.09
50682;BME280;36779;52.168;20.878;2023-07-28T12:42:34;99363.33;;;22.30;58.33
50682;BME280;36779;52.168;20.878;2023-07-28T12:45:13;99366.15;;;22.30;58.49
50682;BME280;36779;52.168;20.878;2023-07-28T12:47:48;99372.21;;;22.38;58.74
50682;BME280;36779;52.168;20.878;2023-07-28T12:50:29;99375.38;;;22.44;58.64
50682;BME280;36779;52.168;20.878;2023-07-28T12:53:11;99378.80;;;22.42;58.53
50682;BME280;36779;52.168;20.878;2023-07-28T12:55:48;99379.25;;;22.34;58.48
50682;BME280;36779;52.168;20.878;2023-07-28T12:58:24;99380.93;;;22.25;58.33
50682;BME280;36779;52.168;20.878;2023-07-28T13:00:59;99386.02;;;22.09;58.30
50682;BME280;36779;52.168;20.878;2023-07-28T13:03:33;99389.73;;;21.95;58.28
50682;BME280;36779;52.168;20.878;2023-07-28T13:06:05;99392.94;;;21.80;58.33
50682;BME280;36779;52.168;20.878;2023-07-28T13:08:37;99393.44;;;21.68;58.40
50682;BME280;36779;52.168;20.878;2023-07-28T13:11:12;99397.24;;;21.62;58.53
50682;BME280;36779;52.168;20.878;2023-07-28T13:13:48;99398.94;;;21.62;58.64
50682;BME280;36779;52.168;20.878;2023-07-28T13:16:20;99400.70;;;21.61;58.65
50682;BME280;36779;52.168;20.878;2023-07-28T13:18:54;99397.46;;;21.56;58.59
50682;BME280;36779;52.168;20.878;2023-07-28T13:21:31;99390.18;;;21.55;58.67
50682;BME280;36779;52.168;20.878;2023-07-28T13:24:05;99384.21;;;21.55;58.77
50682;BME280;36779;52.168;20.878;2023-07-28T13:26:37;99382.73;;;21.58;58.86